createdAt,value
2019-05-16T00:02:29.680Z,93.00
2019-05-16T00:05:00.499Z,93.30
2019-05-16T00:07:31.092Z,93.30
2019-05-16T00:10:02.208Z,93.50
2019-05-16T00:12:33.239Z,93.20
2019-05-16T00:15:03.905Z,91.80
2019-05-16T00:17:37.962Z,91.40
2019-05-16T00:20:10.486Z,91.60
2019-05-16T00:22:40.963Z,91.80
2019-05-16T00:25:12.027Z,91.90
2019-05-16T00:27:42.892Z,92.40
2019-05-16T00:30:13.730Z,91.70
2019-05-16T00:32:44.426Z,91.70
2019-05-16T00:35:15.233Z,92.30
2019-05-16T00:37:48.142Z,92.50
2019-05-16T00:40:18.811Z,91.80
2019-05-16T00:42:49.781Z,91.90
2019-05-16T00:45:20.186Z,92.10
2019-05-16T00:47:50.585Z,92.30
2019-05-16T00:50:21.149Z,92.40
2019-05-16T00:52:52.023Z,92.50
2019-05-16T00:55:22.860Z,92.30
2019-05-16T00:57:54.121Z,92.20
2019-05-16T01:00:45.008Z,92.30
2019-05-16T01:03:15.665Z,92.40
2019-05-16T01:05:48.113Z,92.50
2019-05-16T01:08:19.034Z,92.50
2019-05-16T01:10:51.562Z,92.50
2019-05-16T01:13:22.672Z,92.50
2019-05-16T01:15:53.401Z,92.70
2019-05-16T01:18:24.347Z,92.70
2019-05-16T01:20:55.273Z,93.30
2019-05-16T01:23:25.680Z,93.00
2019-05-16T01:25:58.633Z,93.00
2019-05-16T01:28:28.553Z,92.90
2019-05-16T01:30:59.360Z,92.90
2019-05-16T01:33:30.145Z,93.00
2019-05-16T01:36:00.729Z,93.20
2019-05-16T01:38:31.755Z,93.10
2019-05-16T01:41:02.236Z,93.60
2019-05-16T01:43:33.007Z,93.20
2019-05-16T01:46:03.733Z,93.70
2019-05-16T01:48:34.522Z,93.90
2019-05-16T01:51:05.195Z,93.70
2019-05-16T01:53:35.909Z,93.30
2019-05-16T01:56:08.438Z,93.00
2019-05-16T01:58:38.769Z,93.00
2019-05-16T02:01:13.405Z,93.10
2019-05-16T02:04:02.063Z,93.20
2019-05-16T02:06:32.835Z,93.30
2019-05-16T02:09:03.533Z,93.40
2019-05-16T02:11:34.354Z,93.40
2019-05-16T02:14:05.748Z,93.30
2019-05-16T02:16:38.347Z,93.30
2019-05-16T02:19:08.762Z,93.40
2019-05-16T02:21:39.523Z,93.50
2019-05-16T02:24:09.939Z,93.60
2019-05-16T02:26:40.392Z,93.70
2019-05-16T02:29:13.757Z,93.70
2019-05-16T02:31:43.196Z,93.80
2019-05-16T02:34:13.988Z,93.80
2019-05-16T02:36:44.666Z,93.70
2019-05-16T02:39:15.727Z,94.00
2019-05-16T02:41:46.461Z,94.30
2019-05-16T02:44:17.143Z,94.60
2019-05-16T02:46:50.696Z,94.80
2019-05-16T02:49:21.626Z,94.70
2019-05-16T02:51:52.806Z,94.80
2019-05-16T02:54:23.701Z,94.90
2019-05-16T02:56:54.780Z,95.00
2019-05-16T02:59:25.703Z,95.30
2019-05-16T03:01:56.691Z,95.50
2019-05-16T03:04:30.059Z,95.60
2019-05-16T03:07:00.825Z,95.60
2019-05-16T03:09:33.643Z,95.70
2019-05-16T03:12:05.028Z,95.70
2019-05-16T03:14:37.416Z,96.00
2019-05-16T03:17:11.225Z,95.70
2019-05-16T03:19:41.922Z,95.90
2019-05-16T03:22:15.425Z,96.00
2019-05-16T03:24:46.372Z,96.10
2019-05-16T03:27:17.390Z,96.10
2019-05-16T03:29:50.674Z,96.20
2019-05-16T03:32:24.147Z,96.20
2019-05-16T03:34:54.636Z,96.00
2019-05-16T03:37:25.296Z,96.10
2019-05-16T03:39:56.296Z,95.90
2019-05-16T03:42:27.635Z,95.20
2019-05-16T03:45:01.590Z,94.50
2019-05-16T03:47:31.321Z,94.60
2019-05-16T03:50:02.524Z,94.30
2019-05-16T03:52:33.509Z,93.80
2019-05-16T03:55:04.350Z,93.50
2019-05-16T03:57:35.220Z,92.80
2019-05-16T04:00:11.388Z,92.20
2019-05-16T04:02:42.054Z,91.90
2019-05-16T04:05:13.828Z,91.80
2019-05-16T04:07:45.386Z,91.80
2019-05-16T04:10:16.353Z,90.80
2019-05-16T04:12:47.141Z,90.80
2019-05-16T04:15:21.371Z,90.70
2019-05-16T04:17:51.232Z,90.10
2019-05-16T04:20:22.435Z,90.00
2019-05-16T04:22:53.265Z,90.20
2019-05-16T04:25:24.404Z,90.40
2019-05-16T04:27:55.375Z,90.50
2019-05-16T04:30:31.014Z,90.40
2019-05-16T04:33:01.937Z,90.00
2019-05-16T04:35:31.999Z,90.00
2019-05-16T04:38:03.014Z,90.30
2019-05-16T04:40:34.029Z,90.20
2019-05-16T04:43:25.847Z,90.20
2019-05-16T04:45:56.858Z,90.10
2019-05-16T04:48:30.719Z,90.20
2019-05-16T04:51:01.321Z,90.20
2019-05-16T04:53:32.913Z,90.20
2019-05-16T04:56:03.633Z,90.10
2019-05-16T04:58:34.712Z,90.10
2019-05-16T05:01:05.590Z,90.20
2019-05-16T05:03:36.734Z,90.30
2019-05-16T05:06:07.869Z,89.90
2019-05-16T05:08:50.570Z,90.00
2019-05-16T05:11:14.573Z,90.10
2019-05-16T05:13:45.697Z,90.60
2019-05-16T05:16:23.965Z,89.80
2019-05-16T05:18:54.833Z,89.90
2019-05-16T05:21:25.969Z,89.90
2019-05-16T05:23:56.946Z,90.00
2019-05-16T05:26:30.427Z,89.90
2019-05-16T05:29:00.368Z,89.40
2019-05-16T05:31:35.040Z,89.30
2019-05-16T05:34:03.718Z,89.10
2019-05-16T05:36:34.463Z,88.50
2019-05-16T05:39:11.820Z,88.50
2019-05-16T05:41:40.112Z,88.50
2019-05-16T05:44:11.047Z,87.00
2019-05-16T05:46:42.080Z,86.70
2019-05-16T05:49:12.943Z,87.40
2019-05-16T05:51:43.981Z,87.70
2019-05-16T05:54:14.906Z,87.40
2019-05-16T05:59:35.596Z,86.40
2019-05-16T06:04:55.649Z,85.10
2019-05-16T06:07:26.565Z,85.30
2019-05-16T06:10:00.196Z,84.60
2019-05-16T06:12:31.173Z,84.00
2019-05-16T06:15:07.413Z,83.70
2019-05-16T06:17:34.966Z,85.10
2019-05-16T06:20:06.665Z,84.00
2019-05-16T06:22:37.573Z,84.00
2019-05-16T06:25:13.084Z,83.00
2019-05-16T06:27:40.928Z,82.70
2019-05-16T06:33:04.191Z,83.00
2019-05-16T06:35:35.446Z,82.90
2019-05-16T06:38:06.517Z,82.40
2019-05-16T06:40:37.558Z,82.10
2019-05-16T06:43:10.784Z,82.40
2019-05-16T06:45:41.337Z,82.10
2019-05-16T06:48:12.189Z,81.90
2019-05-16T06:50:43.163Z,81.80
2019-05-16T06:53:14.213Z,81.60
2019-05-16T06:55:45.076Z,81.10
2019-05-16T06:58:16.305Z,80.90
2019-05-16T07:00:51.631Z,79.90
2019-05-16T07:03:20.390Z,79.60
2019-05-16T07:05:51.960Z,80.50
2019-05-16T07:08:24.555Z,79.50
2019-05-16T07:10:55.601Z,79.70
2019-05-16T07:13:26.552Z,80.90
2019-05-16T07:15:57.572Z,80.10
2019-05-16T07:18:31.077Z,80.10
2019-05-16T07:21:01.593Z,80.30
2019-05-16T07:23:34.125Z,81.20
2019-05-16T07:26:05.206Z,80.40
2019-05-16T07:28:36.224Z,79.40
2019-05-16T07:31:17.489Z,78.40
2019-05-16T07:33:40.662Z,79.20
2019-05-16T07:36:11.874Z,79.50
2019-05-16T07:38:42.711Z,78.60
2019-05-16T07:41:14.107Z,78.50
2019-05-16T07:43:45.191Z,78.20
2019-05-16T07:46:16.842Z,78.50
2019-05-16T07:48:47.760Z,77.70
2019-05-16T07:51:20.505Z,76.40
2019-05-16T07:53:51.390Z,77.40
2019-05-16T07:56:22.476Z,77.30
2019-05-16T07:58:53.599Z,76.50
2019-05-16T08:01:24.475Z,76.70
2019-05-16T08:03:55.433Z,77.20
2019-05-16T08:06:26.731Z,76.90
2019-05-16T08:09:00.024Z,77.10
2019-05-16T08:11:30.584Z,76.70
2019-05-16T08:14:01.932Z,76.40
2019-05-16T08:16:33.013Z,76.30
2019-05-16T08:19:04.437Z,75.20
2019-05-16T08:21:35.420Z,76.10
2019-05-16T08:24:07.969Z,74.60
2019-05-16T08:26:42.944Z,73.40
2019-05-16T08:29:13.493Z,73.60
2019-05-16T08:31:43.418Z,72.70
2019-05-16T08:34:14.767Z,72.50
2019-05-16T08:36:45.507Z,71.40
2019-05-16T08:39:16.590Z,71.90
2019-05-16T08:41:51.905Z,73.90
2019-05-16T08:44:21.660Z,75.50
2019-05-16T08:46:57.825Z,76.10
2019-05-16T08:49:25.481Z,76.50
2019-05-16T08:51:56.494Z,75.80
2019-05-16T08:54:27.287Z,76.00
2019-05-16T08:57:17.149Z,76.50
2019-05-16T08:59:33.945Z,76.50
2019-05-16T09:02:03.750Z,76.30
2019-05-16T09:04:34.803Z,76.70
2019-05-16T09:07:05.819Z,76.30
2019-05-16T09:09:44.059Z,75.90
2019-05-16T09:12:09.083Z,75.10
2019-05-16T09:14:40.877Z,75.50
2019-05-16T09:17:12.469Z,75.70
2019-05-16T09:19:43.770Z,76.70
2019-05-16T09:22:17.540Z,78.40
2019-05-16T09:24:48.171Z,78.70
2019-05-16T09:37:09.795Z,78.90
2019-05-16T09:39:40.833Z,76.60
2019-05-16T09:42:11.796Z,75.60
2019-05-16T09:44:42.838Z,75.30
2019-05-16T09:47:13.952Z,75.00
2019-05-16T09:49:47.303Z,75.60
2019-05-16T09:52:17.483Z,76.10
2019-05-16T09:54:48.414Z,77.10
2019-05-16T09:57:19.415Z,76.10
2019-05-16T09:59:50.367Z,77.10
2019-05-16T10:02:21.489Z,76.30
2019-05-16T10:04:52.405Z,77.00
2019-05-16T10:07:27.991Z,77.50
2019-05-16T10:09:57.185Z,77.90
2019-05-16T10:12:28.018Z,78.00
2019-05-16T10:14:59.813Z,76.50
2019-05-16T10:17:31.215Z,77.20
2019-05-16T10:20:02.305Z,79.30
2019-05-16T10:22:53.891Z,80.50
2019-05-16T10:25:27.441Z,81.10
2019-05-16T10:27:57.533Z,80.70
2019-05-16T10:30:29.298Z,80.50
2019-05-16T10:33:01.011Z,79.70
2019-05-16T10:35:31.942Z,79.80
2019-05-16T10:38:03.015Z,80.10
2019-05-16T10:40:36.614Z,81.20
2019-05-16T10:43:07.091Z,80.00
2019-05-16T10:45:40.273Z,80.30
2019-05-16T10:48:11.348Z,80.70
2019-05-16T10:50:42.703Z,80.90
2019-05-16T10:53:33.591Z,80.40
2019-05-16T10:55:47.722Z,80.90
2019-05-16T10:58:35.552Z,81.20
2019-05-16T11:01:15.123Z,81.50
2019-05-16T11:03:23.649Z,82.70
2019-05-16T11:06:02.965Z,82.20
2019-05-16T11:08:26.354Z,83.20
2019-05-16T11:10:57.332Z,83.90
2019-05-16T11:13:28.198Z,84.70
2019-05-16T11:15:59.053Z,85.40
2019-05-16T11:18:29.970Z,85.70
2019-05-16T11:21:01.008Z,86.80
2019-05-16T11:23:32.108Z,87.10
2019-05-16T11:26:03.107Z,87.60
2019-05-16T11:28:36.494Z,88.20
2019-05-16T11:31:07.605Z,88.70
2019-05-16T11:33:38.151Z,89.10
2019-05-16T11:36:12.670Z,90.20
2019-05-16T11:38:42.915Z,90.00
2019-05-16T11:41:13.744Z,90.30
2019-05-16T11:43:44.570Z,90.70
2019-05-16T11:46:15.498Z,90.90
2019-05-16T11:48:48.654Z,91.10
2019-05-16T11:51:18.905Z,91.50
2019-05-16T11:53:49.691Z,91.90
2019-05-16T12:23:18.399Z,92.90
2019-05-16T12:25:49.580Z,93.10
2019-05-16T12:28:20.258Z,93.30
2019-05-16T12:30:51.205Z,93.20
2019-05-16T12:33:22.131Z,93.30
2019-05-16T12:35:53.116Z,93.40
2019-05-16T12:38:24.186Z,93.50
2019-05-16T12:40:56.544Z,93.50
2019-05-16T12:43:43.688Z,93.60
2019-05-16T12:45:59.560Z,93.80
2019-05-16T12:48:30.277Z,93.70
2019-05-16T12:51:01.007Z,93.80
2019-05-16T12:53:32.336Z,93.80
2019-05-16T12:58:53.263Z,94.20
2019-05-16T13:01:30.449Z,94.30
2019-05-16T13:03:56.323Z,94.30
2019-05-16T13:06:27.983Z,94.30
2019-05-16T13:08:58.781Z,94.40
2019-05-16T13:11:29.706Z,94.40
2019-05-16T13:14:06.587Z,94.50
2019-05-16T13:16:32.670Z,94.50
2019-05-16T13:19:03.498Z,94.60
2019-05-16T13:21:34.326Z,94.70
2019-05-16T13:24:06.906Z,94.70
2019-05-16T13:26:38.904Z,94.60
2019-05-16T13:29:11.382Z,94.50
2019-05-16T13:31:42.307Z,94.70
2019-05-16T13:34:13.181Z,94.60
2019-05-16T13:36:47.216Z,95.00
2019-05-16T13:39:17.037Z,94.60
2019-05-16T13:41:48.278Z,94.70
2019-05-16T13:44:22.780Z,94.80
2019-05-16T13:46:51.139Z,94.80
2019-05-16T13:49:22.209Z,94.70
2019-05-16T13:51:53.915Z,94.80
2019-05-16T13:54:26.945Z,94.80
2019-05-16T13:56:58.272Z,94.80
2019-05-16T13:59:29.047Z,94.80
2019-05-16T14:02:00.062Z,94.80
2019-05-16T14:04:31.566Z,94.60
2019-05-16T14:07:02.596Z,94.60
2019-05-16T14:09:33.666Z,94.60
2019-05-16T14:12:06.609Z,94.60
2019-05-16T14:14:41.465Z,94.50
2019-05-16T14:17:14.144Z,94.50
2019-05-16T14:19:41.779Z,94.50
2019-05-16T14:22:12.721Z,94.40
2019-05-16T14:24:43.633Z,94.40
2019-05-16T14:29:57.752Z,94.20
2019-05-16T14:32:29.029Z,94.20
2019-05-16T14:35:00.866Z,93.90
2019-05-16T14:37:31.981Z,93.90
2019-05-16T14:40:02.901Z,93.20
2019-05-16T14:42:33.991Z,93.20
2019-05-16T14:45:11.527Z,92.90
2019-05-16T14:47:38.040Z,92.80
2019-05-16T14:50:13.252Z,92.80
2019-05-16T14:52:41.622Z,92.90
2019-05-16T14:55:13.196Z,92.90
2019-05-16T14:57:44.263Z,92.90
2019-05-16T15:00:18.115Z,93.00
2019-05-16T15:02:48.225Z,93.10
2019-05-16T15:05:19.372Z,93.20
2019-05-16T15:07:50.310Z,93.20
2019-05-16T15:10:21.563Z,93.20
2019-05-16T15:12:52.419Z,93.20
2019-05-16T15:15:24.772Z,93.10
2019-05-16T15:17:56.800Z,93.20
2019-05-16T15:20:28.185Z,93.30
2019-05-16T15:22:59.256Z,93.30
2019-05-16T15:25:29.923Z,93.30
2019-05-16T15:28:01.197Z,93.40
2019-05-16T15:30:32.565Z,93.40
2019-05-16T15:33:03.514Z,93.50
2019-05-16T15:35:37.778Z,93.40
2019-05-16T15:38:08.734Z,93.50
2019-05-16T15:40:39.307Z,93.50
2019-05-16T15:43:10.392Z,93.60
2019-05-16T15:45:48.094Z,93.50
2019-05-16T15:48:17.269Z,93.40
2019-05-16T15:50:48.140Z,93.30
2019-05-16T15:53:19.167Z,93.20
2019-05-16T15:55:51.751Z,93.10
2019-05-16T15:58:23.069Z,93.10
2019-05-16T16:00:54.113Z,93.10
2019-05-16T16:03:27.203Z,93.00
2019-05-16T16:05:57.262Z,93.00
2019-05-16T16:08:28.503Z,92.80
2019-05-16T16:10:59.422Z,92.90
2019-05-16T16:13:30.247Z,92.90
2019-05-16T16:16:01.099Z,92.80
2019-05-16T16:18:32.112Z,92.80
2019-05-16T16:21:03.071Z,92.80
2019-05-16T16:23:34.091Z,92.90
2019-05-16T16:26:07.054Z,92.90
2019-05-16T16:28:38.093Z,92.90
2019-05-16T16:31:10.065Z,93.00
2019-05-16T16:33:42.083Z,93.00
2019-05-16T16:36:13.133Z,93.00
2019-05-16T16:38:44.201Z,92.70
2019-05-16T16:41:15.211Z,92.90
2019-05-16T16:43:47.712Z,92.90
2019-05-16T16:46:18.440Z,92.80
2019-05-16T16:48:49.168Z,92.80
2019-05-16T16:51:19.941Z,92.70
2019-05-16T16:53:50.939Z,92.70
2019-05-16T16:56:21.752Z,92.70
2019-05-16T16:58:52.888Z,92.70
2019-05-16T17:01:27.077Z,92.70
2019-05-16T17:03:57.507Z,92.70
2019-05-16T17:06:28.505Z,92.70
2019-05-16T17:09:18.484Z,92.80
2019-05-16T17:11:49.671Z,92.80
2019-05-16T17:14:20.532Z,92.90
2019-05-16T17:16:51.358Z,92.90
2019-05-16T17:19:22.388Z,92.90
2019-05-16T17:22:06.203Z,92.90
2019-05-16T17:24:27.253Z,92.90
2019-05-16T17:26:57.795Z,93.00
2019-05-16T17:29:28.711Z,93.00
2019-05-16T17:32:05.953Z,93.00
2019-05-16T17:34:32.177Z,93.00
2019-05-16T17:37:03.006Z,93.10
2019-05-16T17:39:33.746Z,93.10
2019-05-16T17:42:04.660Z,93.20
2019-05-16T17:44:36.422Z,93.20
2019-05-16T17:47:08.626Z,93.20
2019-05-16T17:49:39.464Z,93.50
2019-05-16T17:52:11.883Z,93.30
2019-05-16T17:54:42.739Z,93.40
2019-05-16T17:57:13.753Z,93.30
2019-05-16T17:59:44.573Z,93.30
2019-05-16T18:02:17.214Z,93.30
2019-05-16T18:04:48.049Z,93.30
2019-05-16T18:07:18.864Z,93.40
2019-05-16T18:09:49.794Z,93.50
2019-05-16T18:12:20.618Z,93.60
2019-05-16T18:14:51.459Z,93.60
2019-05-16T18:17:22.372Z,93.60
2019-05-16T18:19:53.117Z,93.70
2019-05-16T18:22:23.846Z,93.70
2019-05-16T18:24:54.757Z,93.80
2019-05-16T18:27:27.350Z,93.80
2019-05-16T18:29:57.867Z,93.80
2019-05-16T18:32:28.952Z,93.80
2019-05-16T18:34:59.876Z,93.90
2019-05-16T18:37:33.324Z,94.00
2019-05-16T18:40:02.937Z,94.10
2019-05-16T18:42:33.767Z,94.10
2019-05-16T18:45:07.134Z,94.10
2019-05-16T18:47:37.854Z,94.20
2019-05-16T18:50:10.875Z,94.20
2019-05-16T18:52:41.697Z,94.60
2019-05-16T18:55:12.831Z,94.30
2019-05-16T18:57:43.852Z,94.30
2019-05-16T19:00:17.579Z,94.40
2019-05-16T19:02:47.894Z,94.40
2019-05-16T19:05:19.355Z,94.40
2019-05-16T19:07:50.175Z,94.50
2019-05-16T19:10:21.306Z,94.50
2019-05-16T19:12:52.142Z,94.70
2019-05-16T19:15:26.613Z,94.70
2019-05-16T19:17:58.479Z,94.80
2019-05-16T19:20:28.733Z,94.70
2019-05-16T19:22:59.661Z,94.70
2019-05-16T19:25:30.383Z,94.80
2019-05-16T19:28:01.222Z,94.80
2019-05-16T19:30:32.145Z,94.80
2019-05-16T19:33:03.376Z,94.80
2019-05-16T19:35:34.204Z,94.70
2019-05-16T19:38:06.779Z,94.70
2019-05-16T19:40:40.284Z,94.70
2019-05-16T19:43:09.702Z,95.10
2019-05-16T19:45:40.526Z,94.70
2019-05-16T19:48:11.355Z,94.60
2019-05-16T19:50:42.402Z,94.70
2019-05-16T19:53:13.211Z,94.70
2019-05-16T19:55:44.146Z,94.70
2019-05-16T19:58:15.479Z,94.80
2019-05-16T20:00:46.611Z,94.70
2019-05-16T20:03:17.527Z,94.70
2019-05-16T20:05:48.963Z,94.60
2019-05-16T20:08:20.110Z,94.50
2019-05-16T20:10:51.927Z,94.60
2019-05-16T20:13:22.996Z,94.60
2019-05-16T20:15:53.875Z,94.70
2019-05-16T20:18:27.145Z,94.70
2019-05-16T20:20:57.040Z,94.80
2019-05-16T20:23:27.829Z,94.70
2019-05-16T20:25:58.694Z,94.70
2019-05-16T20:28:29.632Z,94.80
2019-05-16T20:31:00.450Z,94.80
2019-05-16T20:33:31.621Z,94.90
2019-05-16T20:36:02.646Z,95.00
2019-05-16T20:38:33.602Z,95.00
2019-05-16T20:41:04.591Z,95.00
2019-05-16T20:43:36.797Z,95.10
2019-05-16T20:46:08.134Z,95.20
2019-05-16T20:48:39.431Z,95.20
2019-05-16T20:51:10.454Z,95.20
2019-05-16T20:53:41.466Z,95.20
2019-05-16T20:56:12.948Z,95.20
2019-05-16T20:58:43.774Z,95.20
2019-05-16T21:01:14.605Z,95.20
2019-05-16T21:03:46.742Z,95.20
2019-05-16T21:06:17.978Z,95.20
2019-05-16T21:08:49.792Z,95.30
2019-05-16T21:11:21.930Z,95.40
2019-05-16T21:13:53.016Z,95.50
2019-05-16T21:16:23.788Z,95.50
2019-05-16T21:18:54.748Z,95.50
2019-05-16T21:21:27.390Z,95.50
2019-05-16T21:23:58.145Z,95.40
2019-05-16T21:26:29.174Z,95.10
2019-05-16T21:29:00.136Z,95.10
2019-05-16T21:31:31.099Z,94.90
2019-05-16T21:34:02.328Z,94.80
2019-05-16T21:36:33.379Z,94.50
2019-05-16T21:39:08.108Z,94.40
2019-05-16T21:41:37.518Z,94.40
2019-05-16T21:44:08.460Z,94.40
2019-05-16T21:46:39.405Z,94.30
2019-05-16T21:49:10.681Z,94.20
2019-05-16T21:51:41.722Z,94.10
2019-05-16T21:54:12.533Z,94.10
2019-05-16T21:56:43.398Z,94.00
2019-05-16T21:59:15.162Z,94.00
2019-05-16T22:01:47.274Z,94.00
2019-05-16T22:04:18.767Z,93.80
2019-05-16T22:06:49.831Z,93.80
2019-05-16T22:09:20.711Z,93.90
2019-05-16T22:11:51.643Z,93.90
2019-05-16T22:14:27.513Z,94.00
2019-05-16T22:16:57.713Z,94.00
2019-05-16T22:19:28.442Z,94.00
2019-05-16T22:21:59.368Z,94.30
2019-05-16T22:24:30.302Z,94.30
2019-05-16T22:27:01.259Z,94.40
2019-05-16T22:29:32.052Z,94.50
2019-05-16T22:32:03.140Z,94.60
2019-05-16T22:34:34.158Z,94.50
2019-05-16T22:37:06.533Z,94.50
2019-05-16T22:39:37.676Z,94.40
2019-05-16T22:42:09.388Z,94.30
2019-05-16T22:44:40.438Z,94.40
2019-05-16T22:47:11.263Z,94.30
2019-05-16T22:49:42.232Z,94.20
2019-05-16T22:52:13.268Z,94.10
2019-05-16T22:54:44.212Z,94.10
2019-05-16T22:57:17.413Z,94.10
2019-05-16T22:59:47.678Z,94.20
2019-05-16T23:02:18.798Z,94.20
2019-05-16T23:04:49.722Z,94.30
2019-05-16T23:07:20.784Z,94.40
2019-05-16T23:09:51.847Z,94.40
2019-05-16T23:12:22.656Z,94.90
2019-05-16T23:14:53.589Z,94.80
2019-05-16T23:17:26.652Z,94.80
2019-05-16T23:19:57.359Z,94.90
2019-05-16T23:22:28.177Z,94.90
2019-05-16T23:24:59.005Z,94.80
2019-05-16T23:27:30.119Z,94.80
2019-05-16T23:30:00.962Z,94.60
2019-05-16T23:32:32.024Z,94.00
2019-05-16T23:35:03.219Z,93.70
2019-05-16T23:37:34.094Z,93.50
2019-05-16T23:40:06.366Z,93.20
2019-05-16T23:42:37.451Z,92.70
2019-05-16T23:45:12.561Z,92.30
2019-05-16T23:47:43.517Z,92.00
2019-05-16T23:50:16.836Z,91.80
2019-05-16T23:52:47.305Z,91.60
2019-05-16T23:55:18.388Z,91.50
2019-05-16T23:57:49.404Z,91.60
